Terminal Aerodrome Forecast
Issued by NWS Bismarck, ND

Home | Current Version | Previous Version | Text Only | Print | Product List | Glossary Off
Versions: 1 2 3 4 5 6 7 8 9 10 11 12 13 14 15 16 17 18 19 20 21 22

000
FTUS43 KBIS 060529
TAFISN
TAF
KISN 060529Z 0606/0706 31022G32KT 1SM -SN OVC015
     FM061000 31023G34KT 1 1/2SM BLSN VCSH OVC015
     FM061200 30024G34KT 2SM BLSN OVC015
     FM061300 30022G32KT 3SM BLSN OVC025
     FM061400 30020G29KT P6SM BKN025
     FM070100 31016KT P6SM BKN020=

USA.gov is the U.S. government's official web portal to all federal, state and local government web resources and services.